sensor_id;sensor_type;location;lat;lon;timestamp;pressure;altitude;pressure_sealevel;temperature
70435;BMP280;57876;47.792;12.960;2022-07-29T00:00:32;96826.31;;;21.06
70435;BMP280;57876;47.792;12.960;2022-07-29T00:02:56;96816.75;;;21.07
70435;BMP280;57876;47.792;12.960;2022-07-29T00:05:21;96825.00;;;21.07
70435;BMP280;57876;47.792;12.960;2022-07-29T00:07:45;96812.69;;;21.08
70435;BMP280;57876;47.792;12.960;2022-07-29T00:10:10;96821.53;;;21.07
70435;BMP280;57876;47.792;12.960;2022-07-29T00:12:34;96812.69;;;21.08
70435;BMP280;57876;47.792;12.960;2022-07-29T00:14:59;96804.28;;;21.06
70435;BMP280;57876;47.792;12.960;2022-07-29T00:17:24;96807.78;;;21.07
70435;BMP280;57876;47.792;12.960;2022-07-29T00:19:49;96813.28;;;21.07
70435;BMP280;57876;47.792;12.960;2022-07-29T00:22:13;96802.28;;;21.07
70435;BMP280;57876;47.792;12.960;2022-07-29T00:24:38;96798.13;;;21.06
70435;BMP280;57876;47.792;12.960;2022-07-29T00:27:02;96793.88;;;21.05
70435;BMP280;57876;47.792;12.960;2022-07-29T00:29:27;96796.63;;;21.05
70435;BMP280;57876;47.792;12.960;2022-07-29T00:31:51;96802.28;;;21.07
70435;BMP280;57876;47.792;12.960;2022-07-29T00:34:16;96800.88;;;21.06
70435;BMP280;57876;47.792;12.960;2022-07-29T00:36:58;96807.03;;;21.06
70435;BMP280;57876;47.792;12.960;2022-07-29T00:39:23;96796.63;;;21.05
70435;BMP280;57876;47.792;12.960;2022-07-29T00:41:48;96793.19;;;21.04
70435;BMP280;57876;47.792;12.960;2022-07-29T00:44:12;96788.38;;;21.05
70435;BMP280;57876;47.792;12.960;2022-07-29T00:46:37;96786.94;;;21.04
70435;BMP280;57876;47.792;12.960;2022-07-29T00:49:01;96781.44;;;21.04
70435;BMP280;57876;47.792;12.960;2022-07-29T00:51:26;96778.13;;;21.05
70435;BMP280;57876;47.792;12.960;2022-07-29T00:53:51;96779.44;;;21.04
70435;BMP280;57876;47.792;12.960;2022-07-29T00:56:16;96787.69;;;21.04
70435;BMP280;57876;47.792;12.960;2022-07-29T00:58:41;96786.22;;;21.03
70435;BMP280;57876;47.792;12.960;2022-07-29T01:01:05;96781.44;;;21.04
70435;BMP280;57876;47.792;12.960;2022-07-29T01:03:30;96780.72;;;21.03
70435;BMP280;57876;47.792;12.960;2022-07-29T01:05:54;96785.50;;;21.03
70435;BMP280;57876;47.792;12.960;2022-07-29T01:08:19;96784.09;;;21.02
70435;BMP280;57876;47.792;12.960;2022-07-29T01:10:45;96782.75;;;21.03
70435;BMP280;57876;47.792;12.960;2022-07-29T01:13:10;96777.97;;;21.03
70435;BMP280;57876;47.792;12.960;2022-07-29T01:15:47;96780.72;;;21.03
70435;BMP280;57876;47.792;12.960;2022-07-29T01:18:34;96785.50;;;21.03
70435;BMP280;57876;47.792;12.960;2022-07-29T01:21:53;96773.19;;;21.04
70435;BMP280;57876;47.792;12.960;2022-07-29T01:27:01;96756.56;;;21.02
70435;BMP280;57876;47.792;12.960;2022-07-29T01:29:30;96764.13;;;21.01
70435;BMP280;57876;47.792;12.960;2022-07-29T01:31:59;96761.38;;;21.01
70435;BMP280;57876;47.792;12.960;2022-07-29T01:34:35;96762.06;;;21.02
70435;BMP280;57876;47.792;12.960;2022-07-29T01:39:33;96767.44;;;21.00
70435;BMP280;57876;47.792;12.960;2022-07-29T01:42:05;96770.94;;;21.00
70435;BMP280;57876;47.792;12.960;2022-07-29T01:44:39;96760.63;;;21.01
70435;BMP280;57876;47.792;12.960;2022-07-29T01:47:10;96758.63;;;21.01
70435;BMP280;57876;47.792;12.960;2022-07-29T01:49:41;96755.13;;;21.01
70435;BMP280;57876;47.792;12.960;2022-07-29T01:52:23;96759.91;;;21.00
70435;BMP280;57876;47.792;12.960;2022-07-29T01:54:54;96756.56;;;21.02
70435;BMP280;57876;47.792;12.960;2022-07-29T01:57:21;96749.50;;;20.99
70435;BMP280;57876;47.792;12.960;2022-07-29T01:59:49;96748.19;;;21.00
70435;BMP280;57876;47.792;12.960;2022-07-29T02:02:16;96744.72;;;20.99
70435;BMP280;57876;47.792;12.960;2022-07-29T02:04:44;96737.19;;;21.00
70435;BMP280;57876;47.792;12.960;2022-07-29T02:07:16;96740.66;;;21.00
70435;BMP280;57876;47.792;12.960;2022-07-29T02:09:43;96730.22;;;20.99
70435;BMP280;57876;47.792;12.960;2022-07-29T02:12:10;96719.22;;;20.99
70435;BMP280;57876;47.792;12.960;2022-07-29T02:14:43;96719.97;;;20.99
70435;BMP280;57876;47.792;12.960;2022-07-29T02:17:10;96708.22;;;20.99
70435;BMP280;57876;47.792;12.960;2022-07-29T02:19:36;96701.41;;;21.00
70435;BMP280;57876;47.792;12.960;2022-07-29T02:22:02;96705.47;;;20.99
70435;BMP280;57876;47.792;12.960;2022-07-29T02:24:28;96695.81;;;20.98
70435;BMP280;57876;47.792;12.960;2022-07-29T02:26:56;96702.72;;;20.99
70435;BMP280;57876;47.792;12.960;2022-07-29T02:29:23;96695.81;;;20.98
70435;BMP280;57876;47.792;12.960;2022-07-29T02:31:50;96687.56;;;20.98
70435;BMP280;57876;47.792;12.960;2022-07-29T02:34:17;96688.28;;;20.98
70435;BMP280;57876;47.792;12.960;2022-07-29T02:36:43;96681.31;;;20.97
70435;BMP280;57876;47.792;12.960;2022-07-29T02:39:08;96684.81;;;20.98
70435;BMP280;57876;47.792;12.960;2022-07-29T02:41:40;96689.56;;;20.97
70435;BMP280;57876;47.792;12.960;2022-07-29T02:44:16;96687.56;;;20.98
70435;BMP280;57876;47.792;12.960;2022-07-29T02:47:10;96679.31;;;20.98
70435;BMP280;57876;47.792;12.960;2022-07-29T02:49:44;96677.13;;;20.96
70435;BMP280;57876;47.792;12.960;2022-07-29T02:52:19;96670.94;;;20.96
70435;BMP280;57876;47.792;12.960;2022-07-29T02:55:07;96680.63;;;20.97
70435;BMP280;57876;47.792;12.960;2022-07-29T02:57:38;96681.94;;;20.96
70435;BMP280;57876;47.792;12.960;2022-07-29T03:00:07;96678.44;;;20.95
70435;BMP280;57876;47.792;12.960;2022-07-29T03:02:35;96679.75;;;20.94
70435;BMP280;57876;47.792;12.960;2022-07-29T03:05:02;96682.63;;;20.96
70435;BMP280;57876;47.792;12.960;2022-07-29T03:07:27;96684.69;;;20.96
70435;BMP280;57876;47.792;12.960;2022-07-29T03:09:52;96686.69;;;20.95
70435;BMP280;57876;47.792;12.960;2022-07-29T03:12:16;96686.69;;;20.95
70435;BMP280;57876;47.792;12.960;2022-07-29T03:14:43;96701.19;;;20.96
70435;BMP280;57876;47.792;12.960;2022-07-29T03:17:09;96691.47;;;20.95
70435;BMP280;57876;47.792;12.960;2022-07-29T03:19:33;96692.19;;;20.95
70435;BMP280;57876;47.792;12.960;2022-07-29T03:21:58;96694.94;;;20.95
70435;BMP280;57876;47.792;12.960;2022-07-29T03:26:50;96711.44;;;20.95
70435;BMP280;57876;47.792;12.960;2022-07-29T03:29:15;96705.25;;;20.95
70435;BMP280;57876;47.792;12.960;2022-07-29T03:31:39;96706.69;;;20.96
70435;BMP280;57876;47.792;12.960;2022-07-29T03:34:03;96718.38;;;20.96
70435;BMP280;57876;47.792;12.960;2022-07-29T03:36:28;96712.19;;;20.96
70435;BMP280;57876;47.792;12.960;2022-07-29T03:38:52;96708.69;;;20.95
70435;BMP280;57876;47.792;12.960;2022-07-29T03:41:18;96709.44;;;20.96
70435;BMP280;57876;47.792;12.960;2022-07-29T03:43:43;96707.25;;;20.94
70435;BMP280;57876;47.792;12.960;2022-07-29T03:46:10;96707.25;;;20.94
70435;BMP280;57876;47.792;12.960;2022-07-29T03:48:37;96712.75;;;20.94
70435;BMP280;57876;47.792;12.960;2022-07-29T03:51:03;96716.94;;;20.95
70435;BMP280;57876;47.792;12.960;2022-07-29T03:53:28;96721.75;;;20.95
70435;BMP280;57876;47.792;12.960;2022-07-29T03:55:54;96724.38;;;20.93
70435;BMP280;57876;47.792;12.960;2022-07-29T03:58:21;96721.63;;;20.93
70435;BMP280;57876;47.792;12.960;2022-07-29T04:00:47;96731.91;;;20.92
70435;BMP280;57876;47.792;12.960;2022-07-29T04:03:12;96734.06;;;20.94
70435;BMP280;57876;47.792;12.960;2022-07-29T04:05:37;96736.81;;;20.94
70435;BMP280;57876;47.792;12.960;2022-07-29T04:08:02;96730.59;;;20.93
70435;BMP280;57876;47.792;12.960;2022-07-29T04:10:26;96726.41;;;20.92
70435;BMP280;57876;47.792;12.960;2022-07-29T04:12:50;96729.88;;;20.93
70435;BMP280;57876;47.792;12.960;2022-07-29T04:15:15;96729.16;;;20.92
70435;BMP280;57876;47.792;12.960;2022-07-29T04:17:39;96729.16;;;20.92
70435;BMP280;57876;47.792;12.960;2022-07-29T04:20:04;96728.44;;;20.92
70435;BMP280;57876;47.792;12.960;2022-07-29T04:22:29;96728.44;;;20.92
70435;BMP280;57876;47.792;12.960;2022-07-29T04:24:53;96731.91;;;20.92
70435;BMP280;57876;47.792;12.960;2022-07-29T04:27:18;96740.16;;;20.92
70435;BMP280;57876;47.792;12.960;2022-07-29T04:29:42;96742.91;;;20.92
70435;BMP280;57876;47.792;12.960;2022-07-29T04:32:07;96737.41;;;20.92
70435;BMP280;57876;47.792;12.960;2022-07-29T04:34:31;96749.72;;;20.91
70435;BMP280;57876;47.792;12.960;2022-07-29T04:36:55;96740.88;;;20.93
70435;BMP280;57876;47.792;12.960;2022-07-29T04:39:20;96744.19;;;20.91
70435;BMP280;57876;47.792;12.960;2022-07-29T04:41:44;96744.94;;;20.92
70435;BMP280;57876;47.792;12.960;2022-07-29T04:44:09;96743.63;;;20.93
70435;BMP280;57876;47.792;12.960;2022-07-29T04:46:33;96741.59;;;20.93
70435;BMP280;57876;47.792;12.960;2022-07-29T04:48:58;96744.34;;;20.93
70435;BMP280;57876;47.792;12.960;2022-07-29T04:51:22;96746.25;;;20.91
70435;BMP280;57876;47.792;12.960;2022-07-29T04:53:46;96741.47;;;20.91
70435;BMP280;57876;47.792;12.960;2022-07-29T04:56:11;96742.19;;;20.92
70435;BMP280;57876;47.792;12.960;2022-07-29T04:58:36;96746.38;;;20.93
70435;BMP280;57876;47.792;12.960;2022-07-29T05:01:00;96753.31;;;20.94
70435;BMP280;57876;47.792;12.960;2022-07-29T05:03:25;96749.13;;;20.93
70435;BMP280;57876;47.792;12.960;2022-07-29T05:05:49;96754.63;;;20.93
70435;BMP280;57876;47.792;12.960;2022-07-29T05:08:14;96749.00;;;20.91
70435;BMP280;57876;47.792;12.960;2022-07-29T05:10:38;96755.22;;;20.91
70435;BMP280;57876;47.792;12.960;2022-07-29T05:13:04;96755.94;;;20.92
70435;BMP280;57876;47.792;12.960;2022-07-29T05:15:29;96759.41;;;20.92
70435;BMP280;57876;47.792;12.960;2022-07-29T05:17:53;96753.91;;;20.92
70435;BMP280;57876;47.792;12.960;2022-07-29T05:20:18;96762.25;;;20.94
70435;BMP280;57876;47.792;12.960;2022-07-29T05:22:42;96762.16;;;20.92
70435;BMP280;57876;47.792;12.960;2022-07-29T05:25:07;96758.69;;;20.92
70435;BMP280;57876;47.792;12.960;2022-07-29T05:27:33;96762.88;;;20.93
70435;BMP280;57876;47.792;12.960;2022-07-29T05:29:57;96769.84;;;20.94
70435;BMP280;57876;47.792;12.960;2022-07-29T05:32:21;96774.00;;;20.95
70435;BMP280;57876;47.792;12.960;2022-07-29T05:34:46;96782.25;;;20.95
70435;BMP280;57876;47.792;12.960;2022-07-29T05:37:10;96778.09;;;20.94
70435;BMP280;57876;47.792;12.960;2022-07-29T05:39:37;96780.84;;;20.94
70435;BMP280;57876;47.792;12.960;2022-07-29T05:42:01;96771.25;;;20.95
70435;BMP280;57876;47.792;12.960;2022-07-29T05:44:26;96773.25;;;20.94
70435;BMP280;57876;47.792;12.960;2022-07-29T05:46:50;96779.50;;;20.95
70435;BMP280;57876;47.792;12.960;2022-07-29T05:49:14;96775.44;;;20.96
70435;BMP280;57876;47.792;12.960;2022-07-29T05:51:39;96774.13;;;20.97
70435;BMP280;57876;47.792;12.960;2022-07-29T05:54:04;96776.16;;;20.96
70435;BMP280;57876;47.792;12.960;2022-07-29T05:56:28;96770.66;;;20.96
70435;BMP280;57876;47.792;12.960;2022-07-29T05:58:53;96767.19;;;20.96
70435;BMP280;57876;47.792;12.960;2022-07-29T06:01:17;96780.34;;;20.97
70435;BMP280;57876;47.792;12.960;2022-07-29T06:03:42;96775.59;;;20.98
70435;BMP280;57876;47.792;12.960;2022-07-29T06:06:07;96775.59;;;20.98
70435;BMP280;57876;47.792;12.960;2022-07-29T06:08:31;96776.28;;;20.98
70435;BMP280;57876;47.792;12.960;2022-07-29T06:10:57;96785.25;;;20.99
70435;BMP280;57876;47.792;12.960;2022-07-29T06:13:22;96780.34;;;20.97
70435;BMP280;57876;47.792;12.960;2022-07-29T06:15:46;96782.38;;;20.97
70435;BMP280;57876;47.792;12.960;2022-07-29T06:18:12;96774.13;;;20.97
70435;BMP280;57876;47.792;12.960;2022-07-29T06:20:37;96783.09;;;20.97
70435;BMP280;57876;47.792;12.960;2022-07-29T06:23:01;96785.13;;;20.97
70435;BMP280;57876;47.792;12.960;2022-07-29T06:25:28;96776.88;;;20.97
70435;BMP280;57876;47.792;12.960;2022-07-29T06:27:53;96783.84;;;20.98
70435;BMP280;57876;47.792;12.960;2022-07-29T06:30:17;96768.63;;;20.97
70435;BMP280;57876;47.792;12.960;2022-07-29T06:32:42;96780.34;;;20.97
70435;BMP280;57876;47.792;12.960;2022-07-29T06:35:06;96770.66;;;20.96
70435;BMP280;57876;47.792;12.960;2022-07-29T06:37:31;96776.16;;;20.96
70435;BMP280;57876;47.792;12.960;2022-07-29T06:39:55;96764.44;;;20.96
70435;BMP280;57876;47.792;12.960;2022-07-29T06:42:44;96767.91;;;20.96
70435;BMP280;57876;47.792;12.960;2022-07-29T06:45:10;96756.19;;;20.96
70435;BMP280;57876;47.792;12.960;2022-07-29T06:47:35;96761.09;;;20.97
70435;BMP280;57876;47.792;12.960;2022-07-29T06:49:59;96763.84;;;20.97
70435;BMP280;57876;47.792;12.960;2022-07-29T06:52:24;96764.59;;;20.98
70435;BMP280;57876;47.792;12.960;2022-07-29T06:54:49;96764.69;;;21.00
70435;BMP280;57876;47.792;12.960;2022-07-29T06:57:13;96764.69;;;21.00
70435;BMP280;57876;47.792;12.960;2022-07-29T06:59:38;96769.63;;;21.01
70435;BMP280;57876;47.792;12.960;2022-07-29T07:02:02;96766.13;;;21.01
70435;BMP280;57876;47.792;12.960;2022-07-29T07:04:27;96751.66;;;21.00
70435;BMP280;57876;47.792;12.960;2022-07-29T07:06:51;96761.38;;;21.01
70435;BMP280;57876;47.792;12.960;2022-07-29T07:09:15;96760.75;;;21.03
70435;BMP280;57876;47.792;12.960;2022-07-29T07:11:40;96766.25;;;21.03
70435;BMP280;57876;47.792;12.960;2022-07-29T07:14:04;96766.97;;;21.03
70435;BMP280;57876;47.792;12.960;2022-07-29T07:16:28;96765.66;;;21.04
70435;BMP280;57876;47.792;12.960;2022-07-29T07:18:53;96766.38;;;21.05
70435;BMP280;57876;47.792;12.960;2022-07-29T07:21:17;96762.19;;;21.04
70435;BMP280;57876;47.792;12.960;2022-07-29T07:23:42;96760.16;;;21.04
70435;BMP280;57876;47.792;12.960;2022-07-29T07:26:06;96767.13;;;21.05
70435;BMP280;57876;47.792;12.960;2022-07-29T07:28:31;96763.03;;;21.06
70435;BMP280;57876;47.792;12.960;2022-07-29T07:30:55;96763.63;;;21.05
70435;BMP280;57876;47.792;12.960;2022-07-29T07:33:20;96764.38;;;21.05
70435;BMP280;57876;47.792;12.960;2022-07-29T07:35:44;96765.78;;;21.06
70435;BMP280;57876;47.792;12.960;2022-07-29T07:38:09;96769.88;;;21.05
70435;BMP280;57876;47.792;12.960;2022-07-29T07:40:33;96761.00;;;21.07
70435;BMP280;57876;47.792;12.960;2022-07-29T07:42:58;96763.16;;;21.08
70435;BMP280;57876;47.792;12.960;2022-07-29T07:45:22;96761.16;;;21.09
70435;BMP280;57876;47.792;12.960;2022-07-29T07:47:47;96764.59;;;21.09
70435;BMP280;57876;47.792;12.960;2022-07-29T07:50:11;96766.03;;;21.10
70435;BMP280;57876;47.792;12.960;2022-07-29T07:52:46;96755.16;;;21.12
70435;BMP280;57876;47.792;12.960;2022-07-29T07:55:11;96757.34;;;21.14
70435;BMP280;57876;47.792;12.960;2022-07-29T07:57:36;96757.34;;;21.14
70435;BMP280;57876;47.792;12.960;2022-07-29T08:00:00;96756.00;;;21.15
70435;BMP280;57876;47.792;12.960;2022-07-29T08:02:25;96758.19;;;21.16
70435;BMP280;57876;47.792;12.960;2022-07-29T08:04:49;96761.63;;;21.17
70435;BMP280;57876;47.792;12.960;2022-07-29T08:07:13;96751.94;;;21.16
70435;BMP280;57876;47.792;12.960;2022-07-29T08:09:38;96767.13;;;21.17
70435;BMP280;57876;47.792;12.960;2022-07-29T08:12:03;96754.81;;;21.18
70435;BMP280;57876;47.792;12.960;2022-07-29T08:14:30;96755.53;;;21.18
70435;BMP280;57876;47.792;12.960;2022-07-29T08:16:54;96756.25;;;21.19
70435;BMP280;57876;47.792;12.960;2022-07-29T08:19:19;96754.94;;;21.20
70435;BMP280;57876;47.792;12.960;2022-07-29T08:21:43;96761.03;;;21.18
70435;BMP280;57876;47.792;12.960;2022-07-29T08:24:07;96761.03;;;21.18
70435;BMP280;57876;47.792;12.960;2022-07-29T08:26:50;96757.56;;;21.18
70435;BMP280;57876;47.792;12.960;2022-07-29T08:29:15;96759.63;;;21.17
70435;BMP280;57876;47.792;12.960;2022-07-29T08:31:40;96756.88;;;21.17
70435;BMP280;57876;47.792;12.960;2022-07-29T08:34:05;96763.06;;;21.18
70435;BMP280;57876;47.792;12.960;2022-07-29T08:36:30;96759.50;;;21.15
70435;BMP280;57876;47.792;12.960;2022-07-29T08:38:55;96758.75;;;21.15
70435;BMP280;57876;47.792;12.960;2022-07-29T08:41:19;96763.53;;;21.14
70435;BMP280;57876;47.792;12.960;2022-07-29T08:43:44;96749.09;;;21.14
70435;BMP280;57876;47.792;12.960;2022-07-29T08:46:09;96760.78;;;21.14
70435;BMP280;57876;47.792;12.960;2022-07-29T08:48:33;96755.28;;;21.14
70435;BMP280;57876;47.792;12.960;2022-07-29T08:50:59;96757.91;;;21.12
70435;BMP280;57876;47.792;12.960;2022-07-29T08:53:26;96758.63;;;21.13
70435;BMP280;57876;47.792;12.960;2022-07-29T08:55:51;96759.22;;;21.11
70435;BMP280;57876;47.792;12.960;2022-07-29T08:58:42;96748.22;;;21.11
70435;BMP280;57876;47.792;12.960;2022-07-29T09:01:07;96764.72;;;21.11
70435;BMP280;57876;47.792;12.960;2022-07-29T09:03:34;96749.53;;;21.10
70435;BMP280;57876;47.792;12.960;2022-07-29T09:06:01;96753.00;;;21.11
70435;BMP280;57876;47.792;12.960;2022-07-29T09:08:28;96745.47;;;21.11
70435;BMP280;57876;47.792;12.960;2022-07-29T09:10:54;96746.91;;;21.12
70435;BMP280;57876;47.792;12.960;2022-07-29T09:13:22;96744.16;;;21.12
70435;BMP280;57876;47.792;12.960;2022-07-29T09:15:46;96751.69;;;21.12
70435;BMP280;57876;47.792;12.960;2022-07-29T09:18:11;96740.69;;;21.12
70435;BMP280;57876;47.792;12.960;2022-07-29T09:20:35;96748.38;;;21.13
70435;BMP280;57876;47.792;12.960;2022-07-29T09:23:18;96746.19;;;21.12
70435;BMP280;57876;47.792;12.960;2022-07-29T09:25:42;96745.63;;;21.13
70435;BMP280;57876;47.792;12.960;2022-07-29T09:28:11;96752.41;;;21.12
70435;BMP280;57876;47.792;12.960;2022-07-29T09:30:49;96735.19;;;21.12
70435;BMP280;57876;47.792;12.960;2022-07-29T09:33:14;96746.91;;;21.12
70435;BMP280;57876;47.792;12.960;2022-07-29T09:35:38;96743.44;;;21.12
70435;BMP280;57876;47.792;12.960;2022-07-29T09:38:10;96739.97;;;21.11
70435;BMP280;57876;47.792;12.960;2022-07-29T09:40:35;96739.97;;;21.11
70435;BMP280;57876;47.792;12.960;2022-07-29T09:43:10;96740.69;;;21.12
70435;BMP280;57876;47.792;12.960;2022-07-29T09:45:34;96743.44;;;21.12
70435;BMP280;57876;47.792;12.960;2022-07-29T09:48:12;96744.75;;;21.11
70435;BMP280;57876;47.792;12.960;2022-07-29T09:50:41;96739.25;;;21.11
70435;BMP280;57876;47.792;12.960;2022-07-29T09:53:06;96747.50;;;21.11
70435;BMP280;57876;47.792;12.960;2022-07-29T09:55:49;96742.00;;;21.11
70435;BMP280;57876;47.792;12.960;2022-07-29T09:58:19;96747.50;;;21.11
70435;BMP280;57876;47.792;12.960;2022-07-29T10:00:44;96743.44;;;21.12
70435;BMP280;57876;47.792;12.960;2022-07-29T10:03:09;96739.25;;;21.11
70435;BMP280;57876;47.792;12.960;2022-07-29T10:05:34;96739.97;;;21.11
70435;BMP280;57876;47.792;12.960;2022-07-29T10:07:58;96748.22;;;21.11
70435;BMP280;57876;47.792;12.960;2022-07-29T10:10:28;96737.94;;;21.12
70435;BMP280;57876;47.792;12.960;2022-07-29T10:13:00;96749.66;;;21.12
70435;BMP280;57876;47.792;12.960;2022-07-29T10:15:28;96740.69;;;21.12
70435;BMP280;57876;47.792;12.960;2022-07-29T10:17:53;96740.69;;;21.12
70435;BMP280;57876;47.792;12.960;2022-07-29T10:20:20;96737.94;;;21.12
70435;BMP280;57876;47.792;12.960;2022-07-29T10:22:49;96737.94;;;21.12
70435;BMP280;57876;47.792;12.960;2022-07-29T10:25:15;96737.81;;;21.10
70435;BMP280;57876;47.792;12.960;2022-07-29T10:27:40;96740.69;;;21.12
70435;BMP280;57876;47.792;12.960;2022-07-29T10:30:05;96734.44;;;21.11
70435;BMP280;57876;47.792;12.960;2022-07-29T10:32:47;96742.72;;;21.11
70435;BMP280;57876;47.792;12.960;2022-07-29T10:35:22;96741.41;;;21.12
70435;BMP280;57876;47.792;12.960;2022-07-29T10:38:05;96744.28;;;21.14
70435;BMP280;57876;47.792;12.960;2022-07-29T10:40:54;96727.78;;;21.14
70435;BMP280;57876;47.792;12.960;2022-07-29T10:43:45;96730.53;;;21.14
70435;BMP280;57876;47.792;12.960;2022-07-29T10:46:10;96729.81;;;21.14
70435;BMP280;57876;47.792;12.960;2022-07-29T10:48:35;96735.31;;;21.14
70435;BMP280;57876;47.792;12.960;2022-07-29T10:51:04;96735.31;;;21.14
70435;BMP280;57876;47.792;12.960;2022-07-29T10:53:51;96718.09;;;21.13
70435;BMP280;57876;47.792;12.960;2022-07-29T10:56:30;96721.56;;;21.14
70435;BMP280;57876;47.792;12.960;2022-07-29T11:01:44;96717.94;;;21.11
70435;BMP280;57876;47.792;12.960;2022-07-29T11:04:08;96720.13;;;21.13
70435;BMP280;57876;47.792;12.960;2022-07-29T11:09:22;96715.34;;;21.13
70435;BMP280;57876;47.792;12.960;2022-07-29T11:11:46;96716.06;;;21.14
70435;BMP280;57876;47.792;12.960;2022-07-29T11:14:11;96715.34;;;21.13
70435;BMP280;57876;47.792;12.960;2022-07-29T11:16:58;96717.38;;;21.13
70435;BMP280;57876;47.792;12.960;2022-07-29T11:19:24;96712.44;;;21.11
70435;BMP280;57876;47.792;12.960;2022-07-29T11:21:49;96706.94;;;21.11
70435;BMP280;57876;47.792;12.960;2022-07-29T11:24:18;96704.19;;;21.11
70435;BMP280;57876;47.792;12.960;2022-07-29T11:26:43;96702.75;;;21.10
70435;BMP280;57876;47.792;12.960;2022-07-29T11:31:40;96700.00;;;21.10
70435;BMP280;57876;47.792;12.960;2022-07-29T11:34:30;96702.75;;;21.10
70435;BMP280;57876;47.792;12.960;2022-07-29T11:45:01;96691.88;;;21.12
70435;BMP280;57876;47.792;12.960;2022-07-29T11:47:30;96688.41;;;21.12
70435;BMP280;57876;47.792;12.960;2022-07-29T11:49:58;96684.34;;;21.13
70435;BMP280;57876;47.792;12.960;2022-07-29T11:52:23;96692.63;;;21.13
70435;BMP280;57876;47.792;12.960;2022-07-29T11:54:49;96685.09;;;21.13
70435;BMP280;57876;47.792;12.960;2022-07-29T11:57:18;96683.75;;;21.14
70435;BMP280;57876;47.792;12.960;2022-07-29T11:59:45;96679.59;;;21.13
70435;BMP280;57876;47.792;12.960;2022-07-29T12:02:10;96678.13;;;21.12
70435;BMP280;57876;47.792;12.960;2022-07-29T12:04:48;96686.50;;;21.14
70435;BMP280;57876;47.792;12.960;2022-07-29T12:07:13;96681.72;;;21.15
70435;BMP280;57876;47.792;12.960;2022-07-29T12:09:37;96678.97;;;21.15
70435;BMP280;57876;47.792;12.960;2022-07-29T12:12:02;96686.50;;;21.14
70435;BMP280;57876;47.792;12.960;2022-07-29T12:14:27;96682.44;;;21.15
70435;BMP280;57876;47.792;12.960;2022-07-29T12:16:52;96683.16;;;21.16
70435;BMP280;57876;47.792;12.960;2022-07-29T12:19:16;96677.66;;;21.16
70435;BMP280;57876;47.792;12.960;2022-07-29T12:24:08;96669.28;;;21.14
70435;BMP280;57876;47.792;12.960;2022-07-29T12:26:32;96664.50;;;21.14
70435;BMP280;57876;47.792;12.960;2022-07-29T12:28:57;96665.19;;;21.15
70435;BMP280;57876;47.792;12.960;2022-07-29T12:31:21;96662.44;;;21.15
70435;BMP280;57876;47.792;12.960;2022-07-29T12:33:52;96648.69;;;21.15
70435;BMP280;57876;47.792;12.960;2022-07-29T12:36:17;96652.78;;;21.14
70435;BMP280;57876;47.792;12.960;2022-07-29T12:38:42;96653.50;;;21.14
70435;BMP280;57876;47.792;12.960;2022-07-29T12:41:06;96648.59;;;21.13
70435;BMP280;57876;47.792;12.960;2022-07-29T12:43:31;96654.09;;;21.13
70435;BMP280;57876;47.792;12.960;2022-07-29T12:45:56;96658.88;;;21.12
70435;BMP280;57876;47.792;12.960;2022-07-29T12:48:42;96647.84;;;21.12
70435;BMP280;57876;47.792;12.960;2022-07-29T12:51:08;96655.53;;;21.14
70435;BMP280;57876;47.792;12.960;2022-07-29T12:53:33;96659.59;;;21.13
70435;BMP280;57876;47.792;12.960;2022-07-29T12:55:58;96652.66;;;21.12
70435;BMP280;57876;47.792;12.960;2022-07-29T13:01:02;96655.53;;;21.14
70435;BMP280;57876;47.792;12.960;2022-07-29T13:03:27;96654.84;;;21.13
70435;BMP280;57876;47.792;12.960;2022-07-29T13:05:51;96649.31;;;21.13
70435;BMP280;57876;47.792;12.960;2022-07-29T13:08:17;96652.06;;;21.13
70435;BMP280;57876;47.792;12.960;2022-07-29T13:10:43;96645.84;;;21.13
70435;BMP280;57876;47.792;12.960;2022-07-29T13:13:10;96635.56;;;21.13
70435;BMP280;57876;47.792;12.960;2022-07-29T13:15:39;96637.59;;;21.13
70435;BMP280;57876;47.792;12.960;2022-07-29T13:18:06;96632.19;;;21.15
70435;BMP280;57876;47.792;12.960;2022-07-29T13:20:49;96627.31;;;21.13
70435;BMP280;57876;47.792;12.960;2022-07-29T13:23:15;96629.44;;;21.15
70435;BMP280;57876;47.792;12.960;2022-07-29T13:25:39;96620.47;;;21.14
70435;BMP280;57876;47.792;12.960;2022-07-29T13:28:04;96621.81;;;21.13
70435;BMP280;57876;47.792;12.960;2022-07-29T13:30:29;96617.03;;;21.14
70435;BMP280;57876;47.792;12.960;2022-07-29T13:32:54;96624.56;;;21.13
70435;BMP280;57876;47.792;12.960;2022-07-29T13:35:19;96632.09;;;21.13
70435;BMP280;57876;47.792;12.960;2022-07-29T13:37:44;96628.59;;;21.12
70435;BMP280;57876;47.792;12.960;2022-07-29T13:40:10;96613.56;;;21.13
70435;BMP280;57876;47.792;12.960;2022-07-29T13:42:35;96609.94;;;21.11
70435;BMP280;57876;47.792;12.960;2022-07-29T13:45:00;96616.88;;;21.12
70435;BMP280;57876;47.792;12.960;2022-07-29T13:47:25;96611.38;;;21.12
70435;BMP280;57876;47.792;12.960;2022-07-29T13:49:49;96604.44;;;21.11
70435;BMP280;57876;47.792;12.960;2022-07-29T13:52:14;96603.72;;;21.10
70435;BMP280;57876;47.792;12.960;2022-07-29T13:54:39;96601.59;;;21.09
70435;BMP280;57876;47.792;12.960;2022-07-29T13:57:04;96605.88;;;21.12
70435;BMP280;57876;47.792;12.960;2022-07-29T13:59:29;96593.44;;;21.11
70435;BMP280;57876;47.792;12.960;2022-07-29T14:01:53;96599.66;;;21.11
70435;BMP280;57876;47.792;12.960;2022-07-29T14:04:17;96599.66;;;21.11
70435;BMP280;57876;47.792;12.960;2022-07-29T14:06:42;96591.41;;;21.11
70435;BMP280;57876;47.792;12.960;2022-07-29T14:09:07;96589.94;;;21.10
70435;BMP280;57876;47.792;12.960;2022-07-29T14:11:32;96587.19;;;21.10
70435;BMP280;57876;47.792;12.960;2022-07-29T14:13:57;96585.19;;;21.11
70435;BMP280;57876;47.792;12.960;2022-07-29T14:16:21;96585.19;;;21.11
70435;BMP280;57876;47.792;12.960;2022-07-29T14:18:46;96576.94;;;21.11
70435;BMP280;57876;47.792;12.960;2022-07-29T14:21:10;96584.44;;;21.10
70435;BMP280;57876;47.792;12.960;2022-07-29T14:23:35;96581.69;;;21.10